sensor_id;sensor_type;location;lat;lon;timestamp;pressure;altitude;pressure_sealevel;temperature;humidity
55466;BME280;41329;41.594;23.810;2023-04-28T00:01:35;95356.50;;;9.53;59.79
55466;BME280;41329;41.594;23.810;2023-04-28T00:04:00;95365.56;;;9.50;59.52
55466;BME280;41329;41.594;23.810;2023-04-28T00:06:26;95368.16;;;9.43;59.47
55466;BME280;41329;41.594;23.810;2023-04-28T00:08:51;95371.22;;;9.38;59.52
55466;BME280;41329;41.594;23.810;2023-04-28T00:11:17;95362.06;;;9.34;59.58
55466;BME280;41329;41.594;23.810;2023-04-28T00:13:42;95371.19;;;9.19;60.06
55466;BME280;41329;41.594;23.810;2023-04-28T00:16:07;95351.13;;;9.03;60.53
55466;BME280;41329;41.594;23.810;2023-04-28T00:18:33;95364.19;;;9.06;60.80
55466;BME280;41329;41.594;23.810;2023-04-28T00:20:59;95362.81;;;8.96;60.99
55466;BME280;41329;41.594;23.810;2023-04-28T00:23:25;95347.53;;;8.83;61.29
55466;BME280;41329;41.594;23.810;2023-04-28T00:25:51;95356.97;;;8.82;61.03
55466;BME280;41329;41.594;23.810;2023-04-28T00:28:17;95360.03;;;8.77;61.19
55466;BME280;41329;41.594;23.810;2023-04-28T00:30:42;95367.47;;;8.77;60.60
55466;BME280;41329;41.594;23.810;2023-04-28T00:33:08;95368.66;;;8.76;60.65
55466;BME280;41329;41.594;23.810;2023-04-28T00:35:33;95355.31;;;8.62;61.01
55466;BME280;41329;41.594;23.810;2023-04-28T00:37:59;95368.94;;;8.71;60.95
55466;BME280;41329;41.594;23.810;2023-04-28T00:40:32;95375.63;;;8.70;60.72
55466;BME280;41329;41.594;23.810;2023-04-28T00:42:58;95375.97;;;8.68;60.97
55466;BME280;41329;41.594;23.810;2023-04-28T00:45:23;95365.22;;;8.63;60.75
55466;BME280;41329;41.594;23.810;2023-04-28T00:47:48;95357.03;;;8.51;60.72
55466;BME280;41329;41.594;23.810;2023-04-28T00:50:15;95366.09;;;8.52;60.73
55466;BME280;41329;41.594;23.810;2023-04-28T00:52:42;95359.97;;;8.43;60.86
55466;BME280;41329;41.594;23.810;2023-04-28T00:55:08;95369.84;;;8.44;60.70
55466;BME280;41329;41.594;23.810;2023-04-28T00:57:34;95372.16;;;8.42;60.88
55466;BME280;41329;41.594;23.810;2023-04-28T01:00:00;95352.53;;;8.28;61.08
55466;BME280;41329;41.594;23.810;2023-04-28T01:02:26;95366.03;;;8.33;61.11
55466;BME280;41329;41.594;23.810;2023-04-28T01:04:55;95355.09;;;8.21;60.94
55466;BME280;41329;41.594;23.810;2023-04-28T01:07:20;95371.84;;;8.28;60.79
55466;BME280;41329;41.594;23.810;2023-04-28T01:09:46;95379.81;;;8.17;60.66
55466;BME280;41329;41.594;23.810;2023-04-28T01:12:12;95376.03;;;8.10;60.83
55466;BME280;41329;41.594;23.810;2023-04-28T01:14:37;95373.28;;;8.10;61.11
55466;BME280;41329;41.594;23.810;2023-04-28T01:17:04;95355.69;;;7.99;60.63
55466;BME280;41329;41.594;23.810;2023-04-28T01:19:29;95377.28;;;7.97;60.92
55466;BME280;41329;41.594;23.810;2023-04-28T01:21:55;95385.13;;;7.95;60.99
55466;BME280;41329;41.594;23.810;2023-04-28T01:24:20;95368.66;;;7.83;61.16
55466;BME280;41329;41.594;23.810;2023-04-28T01:26:46;95363.41;;;7.78;61.08
55466;BME280;41329;41.594;23.810;2023-04-28T01:29:11;95378.41;;;7.80;61.15
55466;BME280;41329;41.594;23.810;2023-04-28T01:31:37;95375.94;;;7.75;61.34
55466;BME280;41329;41.594;23.810;2023-04-28T01:34:02;95373.88;;;7.72;61.27
55466;BME280;41329;41.594;23.810;2023-04-28T01:36:28;95387.72;;;7.76;61.30
55466;BME280;41329;41.594;23.810;2023-04-28T01:38:54;95395.91;;;7.72;61.09
55466;BME280;41329;41.594;23.810;2023-04-28T01:41:20;95395.81;;;7.69;61.37
55466;BME280;41329;41.594;23.810;2023-04-28T01:43:46;95386.19;;;7.63;61.43
55466;BME280;41329;41.594;23.810;2023-04-28T01:46:12;95388.88;;;7.59;61.47
55466;BME280;41329;41.594;23.810;2023-04-28T01:48:37;95392.56;;;7.51;61.73
55466;BME280;41329;41.594;23.810;2023-04-28T01:51:03;95382.16;;;7.45;62.37
55466;BME280;41329;41.594;23.810;2023-04-28T01:53:29;95387.78;;;7.36;62.86
55466;BME280;41329;41.594;23.810;2023-04-28T01:55:55;95402.28;;;7.33;62.44
55466;BME280;41329;41.594;23.810;2023-04-28T01:58:20;95394.25;;;7.28;62.18
55466;BME280;41329;41.594;23.810;2023-04-28T02:00:46;95387.75;;;7.21;62.42
55466;BME280;41329;41.594;23.810;2023-04-28T02:03:12;95398.66;;;7.17;62.57
55466;BME280;41329;41.594;23.810;2023-04-28T02:05:37;95384.09;;;7.17;62.92
55466;BME280;41329;41.594;23.810;2023-04-28T02:08:03;95391.31;;;7.21;62.93
55466;BME280;41329;41.594;23.810;2023-04-28T02:10:28;95384.69;;;7.10;62.86
55466;BME280;41329;41.594;23.810;2023-04-28T02:12:54;95399.91;;;7.20;62.75
55466;BME280;41329;41.594;23.810;2023-04-28T02:15:19;95397.53;;;7.06;62.83
55466;BME280;41329;41.594;23.810;2023-04-28T02:17:45;95407.53;;;6.99;62.95
55466;BME280;41329;41.594;23.810;2023-04-28T02:20:11;95408.56;;;6.94;63.14
55466;BME280;41329;41.594;23.810;2023-04-28T02:22:38;95406.84;;;6.90;63.18
55466;BME280;41329;41.594;23.810;2023-04-28T02:25:04;95384.53;;;6.79;63.66
55466;BME280;41329;41.594;23.810;2023-04-28T02:27:29;95412.69;;;6.88;63.77
55466;BME280;41329;41.594;23.810;2023-04-28T02:29:55;95404.13;;;6.78;63.70
55466;BME280;41329;41.594;23.810;2023-04-28T02:32:20;95394.28;;;6.65;63.94
55466;BME280;41329;41.594;23.810;2023-04-28T02:34:46;95412.63;;;6.73;63.78
55466;BME280;41329;41.594;23.810;2023-04-28T02:37:11;95423.13;;;6.83;64.07
55466;BME280;41329;41.594;23.810;2023-04-28T02:39:37;95398.63;;;6.66;63.95
55466;BME280;41329;41.594;23.810;2023-04-28T02:42:02;95423.47;;;6.81;63.68
55466;BME280;41329;41.594;23.810;2023-04-28T02:44:29;95425.19;;;6.86;64.02
55466;BME280;41329;41.594;23.810;2023-04-28T02:46:55;95404.81;;;6.75;64.13
55466;BME280;41329;41.594;23.810;2023-04-28T02:49:20;95441.47;;;6.91;63.90
55466;BME280;41329;41.594;23.810;2023-04-28T02:51:46;95417.19;;;6.81;63.92
55466;BME280;41329;41.594;23.810;2023-04-28T02:54:11;95416.81;;;6.82;63.63
55466;BME280;41329;41.594;23.810;2023-04-28T02:56:37;95425.19;;;6.86;63.57
55466;BME280;41329;41.594;23.810;2023-04-28T02:59:05;95447.88;;;6.95;63.41
55466;BME280;41329;41.594;23.810;2023-04-28T03:01:30;95449.03;;;6.94;63.28
55466;BME280;41329;41.594;23.810;2023-04-28T03:03:56;95448.66;;;6.95;63.46
55466;BME280;41329;41.594;23.810;2023-04-28T03:06:21;95440.78;;;6.94;63.58
55466;BME280;41329;41.594;23.810;2023-04-28T03:08:46;95443.63;;;6.85;63.92
55466;BME280;41329;41.594;23.810;2023-04-28T03:11:12;95449.94;;;6.86;63.73
55466;BME280;41329;41.594;23.810;2023-04-28T03:13:37;95454.63;;;6.85;63.58
55466;BME280;41329;41.594;23.810;2023-04-28T03:16:03;95458.63;;;6.88;63.43
55466;BME280;41329;41.594;23.810;2023-04-28T03:18:28;95461.53;;;6.79;63.33
55466;BME280;41329;41.594;23.810;2023-04-28T03:20:54;95463.47;;;6.79;63.43
55466;BME280;41329;41.594;23.810;2023-04-28T03:23:19;95462.31;;;6.80;63.51
55466;BME280;41329;41.594;23.810;2023-04-28T03:25:45;95472.53;;;6.79;63.55
55466;BME280;41329;41.594;23.810;2023-04-28T03:28:10;95471.72;;;6.79;63.66
55466;BME280;41329;41.594;23.810;2023-04-28T03:30:36;95468.84;;;6.75;64.02
55466;BME280;41329;41.594;23.810;2023-04-28T03:33:02;95467.22;;;6.74;64.18
55466;BME280;41329;41.594;23.810;2023-04-28T03:35:27;95482.03;;;6.70;64.28
55466;BME280;41329;41.594;23.810;2023-04-28T03:37:52;95475.59;;;6.66;64.25
55466;BME280;41329;41.594;23.810;2023-04-28T03:40:18;95485.47;;;6.67;64.59
55466;BME280;41329;41.594;23.810;2023-04-28T03:42:43;95491.78;;;6.67;64.34
55466;BME280;41329;41.594;23.810;2023-04-28T03:45:09;95485.47;;;6.67;64.25
55466;BME280;41329;41.594;23.810;2023-04-28T03:47:35;95499.69;;;6.69;64.21
55466;BME280;41329;41.594;23.810;2023-04-28T03:50:01;95496.44;;;6.67;64.14
55466;BME280;41329;41.594;23.810;2023-04-28T03:52:26;95506.66;;;6.54;64.04
55466;BME280;41329;41.594;23.810;2023-04-28T03:54:52;95509.06;;;6.56;64.30
55466;BME280;41329;41.594;23.810;2023-04-28T03:57:17;95501.50;;;6.53;64.92
55466;BME280;41329;41.594;23.810;2023-04-28T03:59:43;95503.31;;;6.48;64.61
55466;BME280;41329;41.594;23.810;2023-04-28T04:02:08;95497.34;;;6.46;64.93
55466;BME280;41329;41.594;23.810;2023-04-28T04:04:34;95518.44;;;6.54;64.99
55466;BME280;41329;41.594;23.810;2023-04-28T04:06:59;95528.75;;;6.57;64.79
55466;BME280;41329;41.594;23.810;2023-04-28T04:09:25;95525.63;;;6.47;64.91
55466;BME280;41329;41.594;23.810;2023-04-28T04:11:51;95521.28;;;6.46;64.91
55466;BME280;41329;41.594;23.810;2023-04-28T04:14:16;95517.88;;;6.49;65.05
55466;BME280;41329;41.594;23.810;2023-04-28T04:16:42;95526.78;;;6.46;65.46
55466;BME280;41329;41.594;23.810;2023-04-28T04:19:07;95522.06;;;6.46;65.41
55466;BME280;41329;41.594;23.810;2023-04-28T04:21:33;95528.50;;;6.50;65.60
55466;BME280;41329;41.594;23.810;2023-04-28T04:23:58;95516.25;;;6.48;65.60
55466;BME280;41329;41.594;23.810;2023-04-28T04:26:24;95460.53;;;6.15;65.69
55466;BME280;41329;41.594;23.810;2023-04-28T04:28:49;95527.25;;;6.48;65.46
55466;BME280;41329;41.594;23.810;2023-04-28T04:31:15;95545.94;;;6.67;65.61
55466;BME280;41329;41.594;23.810;2023-04-28T04:33:40;95548.94;;;6.74;65.72
55466;BME280;41329;41.594;23.810;2023-04-28T04:36:06;95546.28;;;6.77;65.78
55466;BME280;41329;41.594;23.810;2023-04-28T04:38:32;95549.19;;;6.81;65.59
55466;BME280;41329;41.594;23.810;2023-04-28T04:40:57;95544.03;;;6.79;65.83
55466;BME280;41329;41.594;23.810;2023-04-28T04:43:22;95489.09;;;6.46;65.84
55466;BME280;41329;41.594;23.810;2023-04-28T04:45:48;95550.56;;;6.87;65.69
55466;BME280;41329;41.594;23.810;2023-04-28T04:48:13;95554.56;;;6.89;66.08
55466;BME280;41329;41.594;23.810;2023-04-28T04:50:40;95557.78;;;6.91;66.42
55466;BME280;41329;41.594;23.810;2023-04-28T04:53:06;95513.28;;;6.65;65.95
55466;BME280;41329;41.594;23.810;2023-04-28T04:55:32;95564.75;;;7.01;65.93
55466;BME280;41329;41.594;23.810;2023-04-28T04:57:57;95572.34;;;7.04;66.09
55466;BME280;41329;41.594;23.810;2023-04-28T05:00:23;95562.25;;;7.08;66.05
55466;BME280;41329;41.594;23.810;2023-04-28T05:02:48;95563.75;;;7.17;66.11
55466;BME280;41329;41.594;23.810;2023-04-28T05:05:14;95556.41;;;7.21;65.99
55466;BME280;41329;41.594;23.810;2023-04-28T05:07:39;95569.81;;;7.23;65.91
55466;BME280;41329;41.594;23.810;2023-04-28T05:10:05;95560.75;;;7.34;66.11
55466;BME280;41329;41.594;23.810;2023-04-28T05:12:31;95558.78;;;7.35;65.34
55466;BME280;41329;41.594;23.810;2023-04-28T05:14:57;95564.06;;;7.40;65.39
55466;BME280;41329;41.594;23.810;2023-04-28T05:17:22;95563.38;;;7.43;65.56
55466;BME280;41329;41.594;23.810;2023-04-28T05:19:48;95573.44;;;7.51;65.50
55466;BME280;41329;41.594;23.810;2023-04-28T05:22:13;95567.13;;;7.62;65.22
55466;BME280;41329;41.594;23.810;2023-04-28T05:24:38;95557.47;;;7.68;65.14
55466;BME280;41329;41.594;23.810;2023-04-28T05:27:04;95565.16;;;7.75;65.33
55466;BME280;41329;41.594;23.810;2023-04-28T05:29:29;95556.91;;;7.63;65.30
55466;BME280;41329;41.594;23.810;2023-04-28T05:31:55;95565.81;;;7.84;64.88
55466;BME280;41329;41.594;23.810;2023-04-28T05:34:20;95570.16;;;7.85;65.08
55466;BME280;41329;41.594;23.810;2023-04-28T05:36:46;95550.09;;;7.84;64.74
55466;BME280;41329;41.594;23.810;2023-04-28T05:39:11;95579.47;;;7.92;64.00
55466;BME280;41329;41.594;23.810;2023-04-28T05:41:36;95582.31;;;7.96;63.86
55466;BME280;41329;41.594;23.810;2023-04-28T05:44:02;95581.13;;;8.09;63.17
55466;BME280;41329;41.594;23.810;2023-04-28T05:46:27;95576.59;;;8.16;62.94
55466;BME280;41329;41.594;23.810;2023-04-28T05:48:53;95581.78;;;8.18;62.46
55466;BME280;41329;41.594;23.810;2023-04-28T05:51:18;95583.88;;;8.09;61.53
55466;BME280;41329;41.594;23.810;2023-04-28T05:53:44;95585.69;;;8.17;61.61
55466;BME280;41329;41.594;23.810;2023-04-28T05:56:15;95582.78;;;8.25;61.43
55466;BME280;41329;41.594;23.810;2023-04-28T05:58:41;95587.97;;;8.27;62.75
55466;BME280;41329;41.594;23.810;2023-04-28T06:01:09;95572.84;;;8.21;61.41
55466;BME280;41329;41.594;23.810;2023-04-28T06:03:34;95586.84;;;8.28;61.40
55466;BME280;41329;41.594;23.810;2023-04-28T06:06:00;95580.81;;;8.38;61.72
55466;BME280;41329;41.594;23.810;2023-04-28T06:08:25;95566.38;;;8.29;62.26
55466;BME280;41329;41.594;23.810;2023-04-28T06:10:51;95585.72;;;8.44;62.16
55466;BME280;41329;41.594;23.810;2023-04-28T06:13:16;95584.13;;;8.43;62.36
55466;BME280;41329;41.594;23.810;2023-04-28T06:15:42;95578.97;;;8.57;61.23
55466;BME280;41329;41.594;23.810;2023-04-28T06:18:07;95585.84;;;8.63;60.70
55466;BME280;41329;41.594;23.810;2023-04-28T06:20:34;95582.19;;;8.59;60.80
55466;BME280;41329;41.594;23.810;2023-04-28T06:23:00;95542.56;;;8.36;60.11
55466;BME280;41329;41.594;23.810;2023-04-28T06:25:25;95586.56;;;8.76;59.87
55466;BME280;41329;41.594;23.810;2023-04-28T06:27:50;95588.03;;;8.85;59.87
55466;BME280;41329;41.594;23.810;2023-04-28T06:30:17;95584.19;;;8.90;60.03
55466;BME280;41329;41.594;23.810;2023-04-28T06:32:45;95579.56;;;8.94;59.61
55466;BME280;41329;41.594;23.810;2023-04-28T06:35:11;95576.28;;;9.04;59.10
55466;BME280;41329;41.594;23.810;2023-04-28T06:37:37;95579.47;;;9.06;59.29
55466;BME280;41329;41.594;23.810;2023-04-28T06:40:02;95579.75;;;9.16;58.84
55466;BME280;41329;41.594;23.810;2023-04-28T06:42:28;95579.56;;;9.25;58.59
55466;BME280;41329;41.594;23.810;2023-04-28T06:44:53;95536.75;;;9.00;57.53
55466;BME280;41329;41.594;23.810;2023-04-28T06:47:19;95548.22;;;9.17;57.32
55466;BME280;41329;41.594;23.810;2023-04-28T06:49:45;95567.06;;;9.46;58.74
55466;BME280;41329;41.594;23.810;2023-04-28T06:52:11;95567.78;;;9.59;57.84
55466;BME280;41329;41.594;23.810;2023-04-28T06:54:38;95565.66;;;9.71;56.08
55466;BME280;41329;41.594;23.810;2023-04-28T06:57:03;95560.16;;;9.71;56.18
55466;BME280;41329;41.594;23.810;2023-04-28T06:59:29;95565.38;;;9.76;55.70
55466;BME280;41329;41.594;23.810;2023-04-28T07:01:55;95555.31;;;9.84;55.61
55466;BME280;41329;41.594;23.810;2023-04-28T07:04:21;95573.69;;;10.11;54.92
55466;BME280;41329;41.594;23.810;2023-04-28T07:06:46;95569.91;;;10.19;53.10
55466;BME280;41329;41.594;23.810;2023-04-28T07:09:12;95548.16;;;10.17;53.53
55466;BME280;41329;41.594;23.810;2023-04-28T07:11:37;95557.47;;;10.28;53.20
55466;BME280;41329;41.594;23.810;2023-04-28T07:14:03;95562.66;;;10.30;51.23
55466;BME280;41329;41.594;23.810;2023-04-28T07:16:28;95563.50;;;10.53;51.87
55466;BME280;41329;41.594;23.810;2023-04-28T07:18:54;95563.84;;;10.70;49.35
55466;BME280;41329;41.594;23.810;2023-04-28T07:21:19;95557.59;;;10.73;48.33
55466;BME280;41329;41.594;23.810;2023-04-28T07:23:46;95541.28;;;10.91;51.20
55466;BME280;41329;41.594;23.810;2023-04-28T07:26:13;95550.44;;;11.17;50.73
55466;BME280;41329;41.594;23.810;2023-04-28T07:28:41;95557.75;;;11.51;51.54
55466;BME280;41329;41.594;23.810;2023-04-28T07:31:07;95542.50;;;11.61;48.04
55466;BME280;41329;41.594;23.810;2023-04-28T07:33:32;95531.13;;;11.69;47.00
55466;BME280;41329;41.594;23.810;2023-04-28T07:35:58;95532.81;;;11.77;48.58
55466;BME280;41329;41.594;23.810;2023-04-28T07:38:23;95539.03;;;11.97;46.98
55466;BME280;41329;41.594;23.810;2023-04-28T07:40:49;95539.53;;;11.76;44.98
55466;BME280;41329;41.594;23.810;2023-04-28T07:43:14;95540.88;;;11.86;47.02
55466;BME280;41329;41.594;23.810;2023-04-28T07:45:40;95527.06;;;11.89;49.13
55466;BME280;41329;41.594;23.810;2023-04-28T07:48:06;95539.56;;;12.06;45.23
55466;BME280;41329;41.594;23.810;2023-04-28T07:50:33;95543.38;;;12.24;45.48
55466;BME280;41329;41.594;23.810;2023-04-28T07:52:58;95532.94;;;12.14;44.25
55466;BME280;41329;41.594;23.810;2023-04-28T07:55:24;95533.75;;;12.18;45.17
55466;BME280;41329;41.594;23.810;2023-04-28T07:57:49;95539.41;;;12.25;44.21
55466;BME280;41329;41.594;23.810;2023-04-28T08:00:15;95534.03;;;12.39;43.26
55466;BME280;41329;41.594;23.810;2023-04-28T08:02:41;95528.06;;;12.37;42.95
55466;BME280;41329;41.594;23.810;2023-04-28T08:05:07;95536.06;;;12.42;42.10
55466;BME280;41329;41.594;23.810;2023-04-28T08:07:34;95540.13;;;12.48;44.39
55466;BME280;41329;41.594;23.810;2023-04-28T08:09:59;95525.47;;;12.51;44.80
55466;BME280;41329;41.594;23.810;2023-04-28T08:12:26;95523.63;;;12.66;43.60
55466;BME280;41329;41.594;23.810;2023-04-28T08:14:51;95523.44;;;12.81;43.22
55466;BME280;41329;41.594;23.810;2023-04-28T08:17:17;95512.44;;;12.95;44.50
55466;BME280;41329;41.594;23.810;2023-04-28T08:19:42;95502.22;;;12.99;42.11
55466;BME280;41329;41.594;23.810;2023-04-28T08:22:10;95505.47;;;13.08;42.64
55466;BME280;41329;41.594;23.810;2023-04-28T08:24:36;95517.13;;;13.24;41.33
55466;BME280;41329;41.594;23.810;2023-04-28T08:27:02;95514.09;;;13.43;44.14
55466;BME280;41329;41.594;23.810;2023-04-28T08:29:31;95507.91;;;13.64;41.09
55466;BME280;41329;41.594;23.810;2023-04-28T08:31:56;95511.50;;;13.68;40.60
55466;BME280;41329;41.594;23.810;2023-04-28T08:34:22;95504.69;;;13.58;40.00
55466;BME280;41329;41.594;23.810;2023-04-28T08:36:48;95483.28;;;13.66;42.05
55466;BME280;41329;41.594;23.810;2023-04-28T08:39:13;95473.03;;;13.77;39.25
55466;BME280;41329;41.594;23.810;2023-04-28T08:41:40;95494.69;;;14.15;41.87
55466;BME280;41329;41.594;23.810;2023-04-28T08:44:09;95486.44;;;14.36;40.81
55466;BME280;41329;41.594;23.810;2023-04-28T08:46:39;95490.44;;;14.38;40.67
55466;BME280;41329;41.594;23.810;2023-04-28T08:49:06;95485.69;;;14.42;36.94
55466;BME280;41329;41.594;23.810;2023-04-28T08:51:44;95492.72;;;14.19;37.57
55466;BME280;41329;41.594;23.810;2023-04-28T08:54:10;95485.41;;;13.93;37.22
55466;BME280;41329;41.594;23.810;2023-04-28T08:56:38;95485.13;;;14.16;38.90
55466;BME280;41329;41.594;23.810;2023-04-28T08:59:04;95488.00;;;14.26;37.29
55466;BME280;41329;41.594;23.810;2023-04-28T09:01:30;95464.19;;;14.36;38.79
55466;BME280;41329;41.594;23.810;2023-04-28T09:03:56;95485.34;;;14.68;36.82
55466;BME280;41329;41.594;23.810;2023-04-28T09:06:22;95470.69;;;14.82;37.43
55466;BME280;41329;41.594;23.810;2023-04-28T09:08:47;95479.84;;;14.86;35.92
55466;BME280;41329;41.594;23.810;2023-04-28T09:11:13;95452.75;;;14.79;36.58
55466;BME280;41329;41.594;23.810;2023-04-28T09:13:40;95454.34;;;14.84;39.17
55466;BME280;41329;41.594;23.810;2023-04-28T09:16:06;95469.88;;;14.88;39.10
55466;BME280;41329;41.594;23.810;2023-04-28T09:18:32;95461.94;;;15.08;36.68
55466;BME280;41329;41.594;23.810;2023-04-28T09:21:09;95456.38;;;15.32;35.37
55466;BME280;41329;41.594;23.810;2023-04-28T09:23:47;95453.59;;;15.57;36.35
55466;BME280;41329;41.594;23.810;2023-04-28T09:26:16;95451.22;;;15.55;35.90
55466;BME280;41329;41.594;23.810;2023-04-28T09:28:41;95426.53;;;15.43;34.66
55466;BME280;41329;41.594;23.810;2023-04-28T09:31:21;95434.06;;;15.53;35.27
55466;BME280;41329;41.594;23.810;2023-04-28T09:33:57;95431.25;;;15.64;33.44
55466;BME280;41329;41.594;23.810;2023-04-28T09:36:27;95389.06;;;15.51;35.05
55466;BME280;41329;41.594;23.810;2023-04-28T09:38:57;95432.88;;;15.61;35.04
55466;BME280;41329;41.594;23.810;2023-04-28T09:41:34;95432.13;;;15.40;36.00
55466;BME280;41329;41.594;23.810;2023-04-28T09:46:36;95418.81;;;16.07;38.49
55466;BME280;41329;41.594;23.810;2023-04-28T09:49:02;95410.47;;;15.93;32.82
55466;BME280;41329;41.594;23.810;2023-04-28T09:51:27;95405.25;;;16.02;34.29
55466;BME280;41329;41.594;23.810;2023-04-28T09:53:54;95408.78;;;16.16;32.70
55466;BME280;41329;41.594;23.810;2023-04-28T09:56:26;95412.38;;;16.17;34.25
55466;BME280;41329;41.594;23.810;2023-04-28T09:58:52;95392.81;;;16.17;34.94
55466;BME280;41329;41.594;23.810;2023-04-28T10:01:18;95393.97;;;16.30;34.01
55466;BME280;41329;41.594;23.810;2023-04-28T10:03:45;95395.13;;;16.43;34.86
55466;BME280;41329;41.594;23.810;2023-04-28T10:06:10;95390.66;;;16.59;33.55
55466;BME280;41329;41.594;23.810;2023-04-28T10:08:36;95377.13;;;16.51;33.59
55466;BME280;41329;41.594;23.810;2023-04-28T10:11:03;95382.50;;;16.82;32.89
55466;BME280;41329;41.594;23.810;2023-04-28T10:13:29;95386.75;;;17.01;31.70
55466;BME280;41329;41.594;23.810;2023-04-28T10:15:55;95378.75;;;16.99;30.95
55466;BME280;41329;41.594;23.810;2023-04-28T10:18:22;95378.81;;;16.92;30.13
55466;BME280;41329;41.594;23.810;2023-04-28T10:20:52;95366.75;;;17.02;30.07
55466;BME280;41329;41.594;23.810;2023-04-28T10:23:54;95369.47;;;17.09;30.70
55466;BME280;41329;41.594;23.810;2023-04-28T10:29:22;95337.66;;;16.96;29.75
55466;BME280;41329;41.594;23.810;2023-04-28T10:32:19;95349.59;;;17.04;30.65
55466;BME280;41329;41.594;23.810;2023-04-28T10:34:45;95341.25;;;17.37;34.89
55466;BME280;41329;41.594;23.810;2023-04-28T10:37:11;95335.53;;;17.55;30.77
55466;BME280;41329;41.594;23.810;2023-04-28T10:39:39;95294.38;;;17.52;33.42
55466;BME280;41329;41.594;23.810;2023-04-28T10:45:08;95330.19;;;18.01;28.87
55466;BME280;41329;41.594;23.810;2023-04-28T10:48:00;95330.13;;;18.05;29.42
55466;BME280;41329;41.594;23.810;2023-04-28T10:50:30;95329.06;;;18.25;28.63
55466;BME280;41329;41.594;23.810;2023-04-28T10:52:56;95327.72;;;18.33;28.88
55466;BME280;41329;41.594;23.810;2023-04-28T10:55:33;95322.88;;;18.67;31.73
55466;BME280;41329;41.594;23.810;2023-04-28T11:00:51;95315.81;;;18.59;27.32
55466;BME280;41329;41.594;23.810;2023-04-28T11:06:20;95298.66;;;18.54;29.43
55466;BME280;41329;41.594;23.810;2023-04-28T11:16:56;95291.75;;;18.85;28.21
55466;BME280;41329;41.594;23.810;2023-04-28T11:48:20;95246.22;;;19.00;27.85
55466;BME280;41329;41.594;23.810;2023-04-28T11:50:46;95270.66;;;19.23;28.62
55466;BME280;41329;41.594;23.810;2023-04-28T11:53:12;95272.09;;;19.54;27.64
55466;BME280;41329;41.594;23.810;2023-04-28T11:55:37;95275.53;;;19.42;26.71
55466;BME280;41329;41.594;23.810;2023-04-28T11:58:21;95276.03;;;19.14;27.44
55466;BME280;41329;41.594;23.810;2023-04-28T12:01:07;95280.22;;;19.29;28.25
55466;BME280;41329;41.594;23.810;2023-04-28T12:03:41;95271.84;;;19.25;27.75
55466;BME280;41329;41.594;23.810;2023-04-28T12:06:07;95252.50;;;18.85;28.79
55466;BME280;41329;41.594;23.810;2023-04-28T12:08:32;95264.00;;;19.13;29.70
55466;BME280;41329;41.594;23.810;2023-04-28T12:11:08;95264.66;;;19.01;30.84
55466;BME280;41329;41.594;23.810;2023-04-28T12:13:35;95248.34;;;19.16;30.43
55466;BME280;41329;41.594;23.810;2023-04-28T12:16:05;95259.25;;;19.33;29.51
55466;BME280;41329;41.594;23.810;2023-04-28T12:18:31;95246.63;;;19.22;28.23
55466;BME280;41329;41.594;23.810;2023-04-28T12:20:57;95237.75;;;18.81;29.13
55466;BME280;41329;41.594;23.810;2023-04-28T12:23:33;95240.25;;;18.98;29.71
55466;BME280;41329;41.594;23.810;2023-04-28T12:25:59;95228.91;;;19.28;28.85
55466;BME280;41329;41.594;23.810;2023-04-28T12:28:36;95239.41;;;19.24;28.52
55466;BME280;41329;41.594;23.810;2023-04-28T12:31:05;95228.66;;;19.19;28.19
55466;BME280;41329;41.594;23.810;2023-04-28T12:33:33;95229.81;;;19.22;29.41
55466;BME280;41329;41.594;23.810;2023-04-28T12:36:02;95224.38;;;19.34;28.42
55466;BME280;41329;41.594;23.810;2023-04-28T12:38:29;95219.25;;;19.29;27.38
55466;BME280;41329;41.594;23.810;2023-04-28T12:40:55;95221.16;;;18.90;28.54
55466;BME280;41329;41.594;23.810;2023-04-28T12:43:21;95208.91;;;19.03;28.80
55466;BME280;41329;41.594;23.810;2023-04-28T12:45:51;95199.03;;;19.18;30.02
55466;BME280;41329;41.594;23.810;2023-04-28T12:48:17;95209.34;;;19.44;28.86
55466;BME280;41329;41.594;23.810;2023-04-28T12:50:43;95209.28;;;19.48;27.16
55466;BME280;41329;41.594;23.810;2023-04-28T12:53:08;95206.13;;;19.26;27.05
55466;BME280;41329;41.594;23.810;2023-04-28T12:55:34;95177.47;;;19.35;27.72
55466;BME280;41329;41.594;23.810;2023-04-28T12:57:59;95197.28;;;19.47;27.93
55466;BME280;41329;41.594;23.810;2023-04-28T13:00:25;95196.03;;;19.29;26.41
55466;BME280;41329;41.594;23.810;2023-04-28T13:02:51;95192.31;;;19.12;27.41
55466;BME280;41329;41.594;23.810;2023-04-28T13:05:17;95199.19;;;19.31;27.72
55466;BME280;41329;41.594;23.810;2023-04-28T13:07:43;95183.78;;;19.58;26.09
55466;BME280;41329;41.594;23.810;2023-04-28T13:10:09;95194.84;;;19.85;27.46
55466;BME280;41329;41.594;23.810;2023-04-28T13:12:35;95184.88;;;20.19;27.87
55466;BME280;41329;41.594;23.810;2023-04-28T13:15:01;95180.22;;;20.13;26.23
55466;BME280;41329;41.594;23.810;2023-04-28T13:17:27;95186.16;;;20.15;27.79
55466;BME280;41329;41.594;23.810;2023-04-28T13:19:52;95163.09;;;20.39;27.71
55466;BME280;41329;41.594;23.810;2023-04-28T13:22:18;95174.34;;;20.55;26.14
55466;BME280;41329;41.594;23.810;2023-04-28T13:24:44;95175.41;;;20.45;25.76
55466;BME280;41329;41.594;23.810;2023-04-28T13:27:09;95176.97;;;20.30;26.56
55466;BME280;41329;41.594;23.810;2023-04-28T13:29:35;95180.34;;;20.57;26.34
55466;BME280;41329;41.594;23.810;2023-04-28T13:32:01;95169.84;;;20.74;27.02
55466;BME280;41329;41.594;23.810;2023-04-28T13:34:26;95169.34;;;20.95;26.31
55466;BME280;41329;41.594;23.810;2023-04-28T13:36:52;95173.34;;;21.10;26.42
55466;BME280;41329;41.594;23.810;2023-04-28T13:39:19;95168.72;;;21.32;26.26
55466;BME280;41329;41.594;23.810;2023-04-28T13:41:46;95159.78;;;21.21;24.79
55466;BME280;41329;41.594;23.810;2023-04-28T13:44:13;95170.38;;;21.01;24.41